Time;durP1;ratioP1;P1;durP2;ratioP2;P2;SDS_P1;SDS_P2;PMS_P1;PMS_P2;Temp;Humidity;BMP_temperature;BMP_pressure;BME280_temperature;BME280_humidity;BME280_pressure;Samples;Min_cycle;Max_cycle;Signal;HPM_P1;HPM_P2
2022/04/07 00:03:14;;;;;;;17.00;5.60;;;22.50;55.80;;;;;;220453;1267;22603;-47
2022/04/07 00:08:18;;;;;;;14.00;5.70;;;22.50;55.50;;;;;;220536;1265;25644;-47
2022/04/07 00:13:25;;;;;;;11.00;4.90;;;22.50;55.50;;;;;;220627;1265;22960;-51
2022/04/07 00:18:31;;;;;;;15.20;5.00;;;22.50;55.40;;;;;;220840;1266;24263;-48
2022/04/07 00:23:35;;;;;;;9.30;4.60;;;22.50;55.30;;;;;;220676;1267;22623;-49
2022/04/07 00:28:38;;;;;;;11.50;5.30;;;22.50;55.10;;;;;;220840;1269;22537;-50
2022/04/07 00:33:42;;;;;;;8.50;4.30;;;22.50;55.00;;;;;;220845;1268;24411;-47
2022/04/07 00:38:46;;;;;;;10.30;4.70;;;22.40;54.90;;;;;;220752;1269;25420;-47
2022/04/07 00:43:53;;;;;;;12.30;5.00;;;22.40;54.80;;;;;;220627;1265;24418;-47
2022/04/07 00:48:57;;;;;;;12.10;4.50;;;22.40;54.80;;;;;;220803;1270;22631;-47
2022/04/07 00:54:01;;;;;;;11.30;4.50;;;22.30;54.80;;;;;;220696;1265;22732;-46
2022/04/07 00:59:06;;;;;;;8.80;4.20;;;22.30;54.70;;;;;;220668;1265;25333;-47
2022/04/07 01:04:10;;;;;;;9.40;4.40;;;22.40;54.30;;;;;;220905;1265;22578;-47
2022/04/07 01:09:18;;;;;;;8.90;4.10;;;22.70;54.10;;;;;;220745;1265;22717;-45
2022/04/07 01:14:22;;;;;;;7.60;4.00;;;23.00;53.40;;;;;;220833;1267;25310;-48
2022/04/07 01:19:26;;;;;;;9.10;4.00;;;23.30;53.20;;;;;;220985;1269;22673;-45
2022/04/07 01:24:31;;;;;;;11.10;4.80;;;23.40;52.50;;;;;;220717;1271;24309;-51
2022/04/07 01:29:37;;;;;;;8.50;4.20;;;23.50;52.30;;;;;;220368;1267;25337;-46
2022/04/07 01:34:40;;;;;;;8.60;4.40;;;23.60;52.40;;;;;;220214;1267;22638;-45
2022/04/07 01:39:46;;;;;;;8.90;4.10;;;23.70;51.80;;;;;;220811;1266;24081;-48
2022/04/07 01:44:57;;;;;;;8.40;4.40;;;23.80;52.10;;;;;;220603;1265;24251;-47
2022/04/07 01:50:08;;;;;;;9.90;4.70;;;23.90;51.70;;;;;;220753;1269;23193;-47
2022/04/07 01:55:11;;;;;;;7.40;4.00;;;23.90;51.70;;;;;;220628;1268;25335;-52
2022/04/07 02:00:16;;;;;;;8.20;4.10;;;23.90;52.30;;;;;;220638;1268;22566;-47
2022/04/07 02:05:19;;;;;;;8.20;3.70;;;23.80;52.40;;;;;;220731;1268;22649;-46
2022/04/07 02:10:23;;;;;;;8.00;4.40;;;23.80;52.60;;;;;;220861;1268;22525;-49
2022/04/07 02:15:27;;;;;;;6.80;3.60;;;23.60;52.90;;;;;;220929;1269;23652;-47
2022/04/07 02:20:31;;;;;;;8.60;3.90;;;23.60;53.30;;;;;;220404;1267;26162;-48
2022/04/07 02:25:38;;;;;;;8.40;3.90;;;23.50;53.90;;;;;;220570;1268;22557;-46
2022/04/07 02:30:42;;;;;;;7.30;4.30;;;23.40;54.10;;;;;;220750;1269;26072;-45
2022/04/07 02:35:45;;;;;;;10.00;4.10;;;23.40;54.30;;;;;;220543;1268;25238;-45
2022/04/07 02:40:49;;;;;;;7.70;4.00;;;23.40;54.30;;;;;;220446;1268;24567;-48
2022/04/07 02:46:02;;;;;;;9.20;3.70;;;23.40;54.30;;;;;;220313;1268;25288;-49
2022/04/07 02:51:10;;;;;;;6.40;3.80;;;23.30;54.60;;;;;;220676;1268;23855;-46
2022/04/07 02:56:14;;;;;;;7.20;3.80;;;23.30;54.30;;;;;;220780;1269;22594;-47
2022/04/07 03:01:18;;;;;;;7.80;3.60;;;23.30;54.30;;;;;;220419;1268;24064;-48
2022/04/07 03:06:23;;;;;;;9.30;3.70;;;23.20;54.70;;;;;;220744;1268;25750;-47
2022/04/07 03:11:26;;;;;;;6.40;3.50;;;23.20;54.30;;;;;;220563;1267;24066;-47
2022/04/07 03:16:31;;;;;;;6.00;3.40;;;23.20;54.60;;;;;;220664;1265;22634;-49
2022/04/07 03:21:35;;;;;;;9.20;3.90;;;23.10;54.20;;;;;;220375;1265;23916;-47
2022/04/07 03:26:39;;;;;;;5.80;3.30;;;23.00;54.50;;;;;;220437;1268;22546;-51
2022/04/07 03:31:49;;;;;;;6.70;3.50;;;23.00;54.30;;;;;;220521;1268;22696;-46
2022/04/07 03:36:53;;;;;;;6.50;3.30;;;23.00;54.30;;;;;;220685;1266;22532;-48
2022/04/07 03:41:58;;;;;;;6.50;3.40;;;23.00;54.30;;;;;;220574;1265;24415;-46
2022/04/07 03:47:02;;;;;;;6.00;3.60;;;22.90;54.30;;;;;;220675;1269;22709;-47
2022/04/07 03:52:06;;;;;;;4.50;2.70;;;22.90;54.20;;;;;;220842;1265;22770;-47
2022/04/07 03:57:10;;;;;;;6.30;3.00;;;22.90;54.20;;;;;;220715;1265;22550;-47
2022/04/07 04:02:22;;;;;;;5.70;3.20;;;22.90;54.30;;;;;;220610;1265;25955;-48
2022/04/07 04:07:30;;;;;;;8.80;3.20;;;22.80;54.20;;;;;;220693;1265;26594;-47
2022/04/07 04:12:38;;;;;;;5.10;3.00;;;22.80;54.40;;;;;;220795;1265;22693;-49
2022/04/07 04:17:56;;;;;;;6.40;3.10;;;22.80;54.30;;;;;;220645;1265;22547;-46
2022/04/07 04:23:02;;;;;;;5.50;2.60;;;22.70;54.20;;;;;;220425;1268;22604;-48
2022/04/07 04:28:08;;;;;;;6.70;3.00;;;22.70;54.20;;;;;;220165;1267;22543;-48
2022/04/07 04:33:12;;;;;;;7.90;3.50;;;22.60;54.20;;;;;;220661;1266;25701;-45
2022/04/07 04:38:16;;;;;;;5.30;2.70;;;22.60;54.20;;;;;;220696;1265;22688;-48
2022/04/07 04:43:21;;;;;;;5.60;2.80;;;22.60;54.20;;;;;;220117;1268;22664;-47
2022/04/07 04:48:24;;;;;;;8.30;3.10;;;22.60;54.20;;;;;;220539;1265;22885;-50
2022/04/07 04:53:28;;;;;;;4.90;2.40;;;22.60;54.30;;;;;;221066;1265;24377;-51
2022/04/07 04:58:32;;;;;;;7.20;3.20;;;22.50;54.20;;;;;;220969;1265;25549;-47
2022/04/07 05:03:36;;;;;;;8.80;2.90;;;22.50;54.20;;;;;;220559;1265;22547;-46
2022/04/07 05:08:39;;;;;;;5.10;2.40;;;22.50;54.30;;;;;;220449;1266;25498;-47
2022/04/07 05:13:43;;;;;;;5.50;2.60;;;22.50;53.80;;;;;;220473;1267;25366;-45
2022/04/07 05:18:48;;;;;;;4.50;2.50;;;22.50;54.20;;;;;;221014;1266;24405;-47
2022/04/07 05:23:52;;;;;;;6.70;2.70;;;22.40;54.10;;;;;;220693;1267;24215;-50
2022/04/07 05:28:56;;;;;;;5.00;2.50;;;22.40;54.10;;;;;;220578;1265;25235;-46
2022/04/07 05:34:00;;;;;;;6.10;2.30;;;22.40;54.10;;;;;;220585;1265;24416;-46
2022/04/07 05:39:03;;;;;;;6.20;3.00;;;22.30;54.00;;;;;;220443;1265;22694;-50
2022/04/07 05:44:08;;;;;;;6.30;2.70;;;22.40;54.80;;;;;;220800;1265;25365;-49
2022/04/07 05:49:12;;;;;;;5.70;2.80;;;22.80;53.70;;;;;;220722;1267;23773;-45
2022/04/07 05:54:17;;;;;;;9.50;3.10;;;23.00;53.10;;;;;;220580;1265;22529;-46
2022/04/07 05:59:22;;;;;;;8.20;3.20;;;23.10;53.40;;;;;;220478;1267;22553;-48
2022/04/07 06:04:26;;;;;;;7.80;2.80;;;23.20;52.70;;;;;;220698;1265;22647;-45
2022/04/07 06:09:29;;;;;;;11.90;3.00;;;23.10;53.10;;;;;;220577;1265;22602;-48
2022/04/07 06:14:33;;;;;;;8.70;2.90;;;23.10;53.30;;;;;;220439;1265;25764;-48
2022/04/07 06:19:38;;;;;;;7.30;2.40;;;23.20;53.20;;;;;;220493;1265;22570;-46
2022/04/07 06:24:45;;;;;;;6.60;2.80;;;23.00;53.80;;;;;;220736;1265;22544;-48
2022/04/07 06:29:49;;;;;;;8.50;2.60;;;23.10;53.70;;;;;;220543;1265;24357;-48
2022/04/07 06:34:52;;;;;;;6.40;2.40;;;23.10;53.90;;;;;;220344;1266;24545;-49
2022/04/07 06:40:01;;;;;;;6.00;2.70;;;23.10;54.20;;;;;;220410;1266;24270;-50
2022/04/07 06:45:05;;;;;;;10.70;2.30;;;23.10;53.90;;;;;;219652;1268;301473;-51
2022/04/07 06:50:12;;;;;;;7.00;2.80;;;23.00;54.30;;;;;;220142;1268;23971;-51
2022/04/07 06:55:16;;;;;;;9.80;2.70;;;23.00;55.20;;;;;;220399;1265;24433;-51
2022/04/07 07:00:25;;;;;;;11.00;3.00;;;23.00;54.70;;;;;;220411;1265;24183;-52
2022/04/07 07:05:35;;;;;;;9.40;2.40;;;23.00;54.90;;;;;;220535;1266;26513;-51
2022/04/07 07:10:41;;;;;;;6.40;2.40;;;22.90;55.40;;;;;;220183;1266;22842;-56
2022/04/07 07:15:46;;;;;;;10.10;2.60;;;23.00;53.20;;;;;;220134;1267;24958;-56
2022/04/07 07:20:50;;;;;;;10.00;2.90;;;22.90;53.20;;;;;;220831;1267;22525;-57
2022/04/07 07:25:53;;;;;;;7.80;2.30;;;22.80;53.20;;;;;;220272;1266;22596;-56
2022/04/07 07:31:00;;;;;;;6.30;2.40;;;22.80;53.50;;;;;;220828;1266;22519;-58
2022/04/07 07:36:04;;;;;;;5.60;2.10;;;22.80;53.40;;;;;;220197;1266;22847;-58
2022/04/07 07:41:08;;;;;;;7.20;2.80;;;22.70;53.30;;;;;;220424;1266;22550;-57
2022/04/07 07:46:12;;;;;;;8.10;2.50;;;22.70;53.10;;;;;;220700;1266;22817;-58
2022/04/07 07:51:16;;;;;;;6.60;2.20;;;22.70;53.30;;;;;;220574;1266;22537;-56
2022/04/07 07:56:19;;;;;;;4.70;1.90;;;22.70;52.90;;;;;;220865;1265;22766;-56
2022/04/07 08:01:24;;;;;;;4.70;1.70;;;22.70;53.10;;;;;;220481;1266;24209;-58
2022/04/07 08:06:29;;;;;;;5.20;2.20;;;22.60;52.90;;;;;;220475;1265;22536;-57
2022/04/07 08:11:37;;;;;;;5.50;1.80;;;22.60;52.90;;;;;;220500;1266;22542;-57
2022/04/07 08:16:43;;;;;;;5.60;2.00;;;22.60;52.80;;;;;;220430;1266;24446;-55
2022/04/07 08:21:47;;;;;;;4.30;2.10;;;22.70;53.10;;;;;;220722;1267;22535;-51
2022/04/07 08:26:51;;;;;;;6.70;1.80;;;22.70;53.70;;;;;;220572;1266;25361;-52
2022/04/07 08:31:55;;;;;;;6.00;1.60;;;22.70;52.80;;;;;;220193;1266;22574;-51
2022/04/07 08:37:00;;;;;;;4.30;2.00;;;22.80;52.30;;;;;;220668;1266;24277;-51
2022/04/07 08:42:06;;;;;;;4.00;1.80;;;22.70;52.20;;;;;;220176;1266;22577;-55
2022/04/07 08:47:11;;;;;;;3.40;1.70;;;22.70;52.50;;;;;;220301;1266;22534;-51
2022/04/07 08:52:16;;;;;;;8.60;1.90;;;22.70;52.20;;;;;;220591;1265;25232;-51
2022/04/07 08:57:21;;;;;;;3.60;1.90;;;22.70;52.30;;;;;;220741;1265;24485;-54
2022/04/07 09:02:25;;;;;;;4.30;2.10;;;22.70;52.20;;;;;;220788;1265;22609;-51
2022/04/07 09:07:33;;;;;;;4.00;1.90;;;22.80;52.20;;;;;;220384;1265;22858;-53
2022/04/07 09:12:38;;;;;;;3.70;1.70;;;22.80;52.10;;;;;;220684;1266;22602;-50
2022/04/07 09:17:51;;;;;;;3.40;1.90;;;22.80;52.00;;;;;;220368;1266;22759;-53
2022/04/07 09:22:59;;;;;;;3.60;1.80;;;22.80;51.80;;;;;;220166;1266;22532;-48
2022/04/07 09:28:02;;;;;;;4.00;2.00;;;22.80;51.90;;;;;;221047;1267;24369;-50
2022/04/07 09:33:21;;;;;;;3.30;1.60;;;22.80;51.70;;;;;;220391;1266;23103;-55
2022/04/07 09:38:27;;;;;;;4.80;1.80;;;22.80;51.60;;;;;;220822;1266;25348;-54
2022/04/07 09:43:48;;;;;;;3.20;1.70;;;22.80;50.80;;;;;;220412;1266;22658;-51
2022/04/07 09:49:07;;;;;;;5.20;1.50;;;22.80;52.20;;;;;;220292;1266;23903;-56
2022/04/07 09:54:11;;;;;;;3.40;1.60;;;22.80;51.90;;;;;;220311;1266;25612;-52
2022/04/07 09:59:19;;;;;;;3.20;1.80;;;22.70;51.40;;;;;;220653;1265;22572;-54
2022/04/07 10:04:27;;;;;;;2.90;1.70;;;22.80;51.50;;;;;;220509;1265;24307;-54
2022/04/07 10:09:33;;;;;;;3.70;1.60;;;22.80;51.20;;;;;;220573;1266;25168;-52
2022/04/07 10:14:37;;;;;;;2.50;1.40;;;22.80;51.30;;;;;;220515;1265;25411;-54
2022/04/07 10:19:50;;;;;;;5.10;1.70;;;22.70;51.60;;;;;;220766;1268;22700;-52
2022/04/07 10:24:57;;;;;;;2.50;1.50;;;22.80;51.30;;;;;;220866;1267;22567;-51
2022/04/07 10:30:11;;;;;;;5.80;1.70;;;22.80;51.20;;;;;;220778;1265;25307;-53
2022/04/07 10:35:31;;;;;;;3.30;1.60;;;22.70;51.40;;;;;;220733;1267;25475;-54
2022/04/07 10:40:48;;;;;;;3.30;1.50;;;22.70;51.00;;;;;;220429;1267;22544;-53
2022/04/07 10:46:02;;;;;;;2.50;1.60;;;22.70;50.80;;;;;;220849;1267;26122;-55
2022/04/07 10:51:08;;;;;;;3.20;1.50;;;22.70;50.80;;;;;;220649;1267;23918;-54
2022/04/07 10:56:33;;;;;;;2.70;1.20;;;22.80;50.30;;;;;;220967;1268;22716;-54
2022/04/07 11:01:36;;;;;;;2.80;1.50;;;22.80;49.90;;;;;;220915;1265;23773;-52
2022/04/07 11:07:10;;;;;;;2.60;1.30;;;22.90;50.20;;;;;;220628;1265;22658;-51
2022/04/07 11:12:37;;;;;;;2.60;1.40;;;22.80;50.10;;;;;;220497;1265;25089;-52
2022/04/07 11:17:42;;;;;;;4.60;1.70;;;22.70;49.60;;;;;;220909;1267;22538;-51
2022/04/07 11:23:08;;;;;;;2.60;1.50;;;22.80;49.90;;;;;;220646;1267;24416;-52
2022/04/07 11:28:24;;;;;;;3.80;1.50;;;22.80;49.70;;;;;;220219;1268;24389;-53
2022/04/07 11:33:29;;;;;;;3.00;1.50;;;22.80;49.80;;;;;;220882;1267;26695;-52
2022/04/07 11:38:47;;;;;;;2.20;1.30;;;22.80;48.80;;;;;;220464;1267;22723;-50
2022/04/07 11:43:52;;;;;;;4.20;1.50;;;22.90;49.40;;;;;;220320;1268;22578;-53
2022/04/07 11:48:58;;;;;;;4.40;1.50;;;22.90;49.30;;;;;;220491;1266;23053;-50
2022/04/07 11:54:05;;;;;;;2.70;1.10;;;22.90;49.30;;;;;;220697;1267;24311;-49
2022/04/07 11:59:11;;;;;;;1.70;1.00;;;22.90;49.20;;;;;;220934;1265;24483;-54
2022/04/07 12:04:15;;;;;;;2.80;1.30;;;22.90;49.30;;;;;;220795;1265;22549;-53
2022/04/07 12:09:23;;;;;;;2.30;1.30;;;22.90;49.50;;;;;;220233;1268;22544;-51
2022/04/07 12:14:32;;;;;;;2.80;1.70;;;22.80;49.10;;;;;;220327;1266;24321;-52
2022/04/07 12:19:46;;;;;;;3.60;1.50;;;22.80;49.40;;;;;;220620;1266;22579;-52
2022/04/07 12:25:06;;;;;;;3.00;1.30;;;22.80;49.60;;;;;;220739;1266;22697;-51
2022/04/07 12:30:11;;;;;;;2.70;1.50;;;22.90;49.70;;;;;;220587;1266;22894;-50
2022/04/07 12:35:15;;;;;;;2.60;1.20;;;22.90;49.50;;;;;;220722;1265;22557;-53
2022/04/07 12:40:26;;;;;;;3.10;1.50;;;22.90;49.50;;;;;;220620;1265;23143;-53
2022/04/07 12:45:31;;;;;;;2.50;1.30;;;22.90;49.70;;;;;;220383;1265;22655;-54
2022/04/07 12:50:35;;;;;;;2.60;1.30;;;22.90;49.30;;;;;;220359;1265;23172;-51
2022/04/07 12:55:39;;;;;;;2.20;1.30;;;22.90;49.90;;;;;;220528;1267;23464;-53
2022/04/07 13:00:58;;;;;;;2.80;1.50;;;22.90;49.30;;;;;;220173;1266;25340;-50
2022/04/07 13:06:03;;;;;;;4.40;1.20;;;22.90;49.60;;;;;;220530;1266;22535;-51
2022/04/07 13:11:07;;;;;;;3.80;1.40;;;22.90;49.10;;;;;;220650;1266;24301;-51
2022/04/07 13:16:11;;;;;;;2.90;1.70;;;23.00;49.00;;;;;;220034;1268;24312;-51
2022/04/07 13:21:16;;;;;;;2.30;1.30;;;23.00;48.80;;;;;;220504;1267;23824;-52
2022/04/07 13:26:20;;;;;;;1.70;1.00;;;23.00;48.60;;;;;;220949;1266;22606;-49
2022/04/07 13:31:25;;;;;;;2.40;1.30;;;22.90;48.70;;;;;;220674;1267;22879;-54
2022/04/07 13:36:29;;;;;;;3.60;1.30;;;22.90;48.70;;;;;;220824;1267;22619;-51
2022/04/07 13:41:36;;;;;;;2.00;1.20;;;22.90;48.70;;;;;;220913;1267;25309;-53
2022/04/07 13:46:39;;;;;;;1.40;1.00;;;22.90;48.20;;;;;;220437;1268;22540;-53
2022/04/07 13:51:43;;;;;;;2.50;1.20;;;22.80;48.60;;;;;;220382;1266;22774;-51
2022/04/07 13:56:49;;;;;;;1.70;1.00;;;22.90;48.50;;;;;;220720;1266;25246;-54
2022/04/07 14:01:53;;;;;;;2.40;1.20;;;22.90;48.50;;;;;;220368;1266;25339;-51
2022/04/07 14:07:00;;;;;;;2.40;1.50;;;22.90;48.70;;;;;;220889;1267;24210;-52
2022/04/07 14:12:05;;;;;;;2.10;1.20;;;22.80;48.40;;;;;;220300;1266;22678;-53
2022/04/07 14:17:09;;;;;;;2.20;1.00;;;22.80;48.30;;;;;;220483;1266;23020;-54
2022/04/07 14:22:13;;;;;;;2.10;1.20;;;22.80;48.40;;;;;;220639;1266;25315;-53
2022/04/07 14:27:18;;;;;;;2.00;1.20;;;22.70;47.90;;;;;;220455;1266;24053;-51
2022/04/07 14:32:22;;;;;;;2.00;1.10;;;22.80;48.30;;;;;;220785;1266;22811;-52
2022/04/07 14:37:33;;;;;;;2.20;1.20;;;22.70;48.60;;;;;;220530;1266;22617;-51
2022/04/07 14:42:41;;;;;;;2.30;1.10;;;22.70;48.30;;;;;;220393;1266;22571;-54
2022/04/07 14:47:48;;;;;;;3.00;1.20;;;22.90;47.80;;;;;;220595;1266;27252;-52
2022/04/07 14:52:53;;;;;;;2.20;1.20;;;23.10;47.50;;;;;;220696;1266;22728;-52
2022/04/07 14:58:15;;;;;;;5.00;1.20;;;23.30;47.10;;;;;;220632;1266;24429;-50
2022/04/07 15:03:33;;;;;;;5.90;1.30;;;23.40;46.90;;;;;;220773;1266;22837;-49
2022/04/07 15:08:39;;;;;;;5.10;1.30;;;23.50;46.60;;;;;;220391;1266;25408;-54
2022/04/07 15:13:44;;;;;;;4.00;1.40;;;23.60;46.60;;;;;;220577;1267;24390;-55
2022/04/07 15:18:48;;;;;;;4.50;1.30;;;23.60;47.00;;;;;;220671;1267;23170;-56
2022/04/07 15:23:52;;;;;;;4.60;1.40;;;23.60;47.80;;;;;;220745;1266;22615;-55
2022/04/07 15:28:56;;;;;;;6.90;1.90;;;23.60;48.20;;;;;;220368;1266;25316;-54
2022/04/07 15:33:59;;;;;;;11.70;2.20;;;23.60;49.00;;;;;;219978;1268;22559;-58
2022/04/07 15:39:07;;;;;;;9.40;1.90;;;23.50;49.50;;;;;;220322;1266;22528;-56
2022/04/07 15:44:14;;;;;;;9.80;2.00;;;23.50;50.20;;;;;;220501;1266;22692;-55
2022/04/07 15:49:22;;;;;;;16.10;1.90;;;23.40;50.60;;;;;;220678;1266;22761;-51
2022/04/07 15:54:32;;;;;;;14.00;2.20;;;23.40;50.60;;;;;;220117;1266;24185;-51
2022/04/07 15:59:35;;;;;;;7.70;1.80;;;23.40;51.00;;;;;;220113;1266;22550;-51
2022/04/07 16:04:42;;;;;;;8.10;2.10;;;23.40;50.50;;;;;;220332;1266;24413;-51
2022/04/07 16:09:46;;;;;;;6.20;1.90;;;23.30;50.50;;;;;;221327;1266;25362;-49
2022/04/07 16:14:56;;;;;;;10.90;2.20;;;23.30;50.00;;;;;;220282;1266;26231;-51
2022/04/07 16:20:01;;;;;;;8.40;1.90;;;23.30;50.80;;;;;;220547;1266;22648;-50
2022/04/07 16:25:07;;;;;;;11.30;1.70;;;23.20;50.40;;;;;;220187;1265;22602;-48
2022/04/07 16:30:15;;;;;;;11.20;2.20;;;23.20;50.20;;;;;;220182;1266;22588;-47
2022/04/07 16:35:23;;;;;;;10.70;2.40;;;23.20;50.30;;;;;;220592;1266;24435;-48
2022/04/07 16:40:31;;;;;;;7.40;1.90;;;23.20;50.50;;;;;;220663;1266;24117;-48
2022/04/07 16:45:35;;;;;;;10.60;2.20;;;23.20;51.60;;;;;;220544;1267;24215;-48
2022/04/07 16:50:39;;;;;;;10.20;2.10;;;23.10;52.20;;;;;;220693;1267;22664;-48
2022/04/07 16:55:43;;;;;;;9.20;2.10;;;23.10;52.80;;;;;;220300;1267;24284;-48
2022/04/07 17:00:47;;;;;;;15.20;5.40;;;23.20;52.80;;;;;;220377;1267;23973;-48
2022/04/07 17:05:52;;;;;;;18.80;4.70;;;23.10;53.40;;;;;;220483;1267;22587;-46
2022/04/07 17:11:06;;;;;;;12.90;4.20;;;23.10;53.20;;;;;;220580;1266;25471;-48
2022/04/07 17:16:16;;;;;;;13.40;4.30;;;23.10;53.60;;;;;;220469;1266;23193;-46
2022/04/07 17:21:20;;;;;;;12.20;4.20;;;23.10;53.70;;;;;;220162;1268;25240;-46
2022/04/07 17:26:23;;;;;;;9.40;3.70;;;23.10;54.00;;;;;;220441;1266;24192;-49
2022/04/07 17:31:27;;;;;;;11.00;3.90;;;23.00;53.50;;;;;;220466;1267;22547;-50
2022/04/07 17:36:35;;;;;;;10.20;3.10;;;23.00;53.20;;;;;;220055;1267;24048;-52
2022/04/07 17:41:39;;;;;;;9.20;3.70;;;23.00;53.10;;;;;;220525;1267;22750;-53
2022/04/07 17:46:43;;;;;;;12.40;3.60;;;23.00;52.80;;;;;;220273;1268;24422;-49
2022/04/07 17:51:47;;;;;;;8.10;3.10;;;22.90;52.40;;;;;;220258;1266;25133;-52
2022/04/07 17:56:52;;;;;;;11.70;4.30;;;22.90;52.30;;;;;;220420;1266;27024;-50
2022/04/07 18:01:58;;;;;;;8.60;3.30;;;22.90;52.30;;;;;;220459;1266;25239;-48
2022/04/07 18:07:09;;;;;;;10.00;3.60;;;22.80;51.80;;;;;;220379;1267;22617;-47
2022/04/07 18:12:16;;;;;;;7.90;3.40;;;22.90;51.70;;;;;;220348;1269;22557;-48
2022/04/07 18:17:26;;;;;;;12.90;3.60;;;22.90;51.80;;;;;;220575;1267;22700;-46
2022/04/07 18:22:33;;;;;;;11.30;2.70;;;22.90;51.70;;;;;;220454;1267;24220;-50
2022/04/07 18:27:45;;;;;;;8.00;2.90;;;22.90;51.10;;;;;;220590;1267;22542;-46
2022/04/07 18:32:56;;;;;;;10.60;3.00;;;22.90;51.30;;;;;;220296;1266;22691;-45
2022/04/07 18:38:01;;;;;;;6.70;2.30;;;22.90;51.10;;;;;;220702;1267;22628;-45
2022/04/07 18:43:05;;;;;;;9.00;2.40;;;22.80;51.40;;;;;;214480;1267;8419364;-47
2022/04/07 18:48:16;;;;;;;8.00;2.60;;;22.70;51.30;;;;;;220367;1269;23170;-47
2022/04/07 18:53:22;;;;;;;8.50;2.20;;;22.70;51.20;;;;;;220441;1267;25542;-46
2022/04/07 18:58:26;;;;;;;6.70;2.50;;;22.70;51.70;;;;;;220848;1267;25422;-46
2022/04/07 19:03:31;;;;;;;8.80;2.80;;;22.70;51.40;;;;;;220556;1267;22520;-46
2022/04/07 19:08:35;;;;;;;8.60;2.60;;;22.70;51.20;;;;;;220122;1268;22777;-48
2022/04/07 19:13:39;;;;;;;21.80;2.80;;;22.70;51.60;;;;;;220512;1267;22681;-46
2022/04/07 19:18:44;;;;;;;13.00;2.60;;;22.80;51.70;;;;;;220354;1266;24766;-50
2022/04/07 19:23:50;;;;;;;9.30;2.60;;;22.70;51.30;;;;;;220509;1267;23968;-54
2022/04/07 19:28:55;;;;;;;8.30;2.20;;;22.70;50.90;;;;;;220660;1266;25337;-53
2022/04/07 19:33:59;;;;;;;8.00;2.60;;;22.70;51.50;;;;;;220203;1267;22610;-54
2022/04/07 19:39:04;;;;;;;7.40;2.00;;;22.60;50.80;;;;;;220256;1266;25443;-52
2022/04/07 19:44:08;;;;;;;9.40;2.10;;;22.60;50.30;;;;;;220410;1267;25640;-53
2022/04/07 19:49:12;;;;;;;11.40;2.50;;;22.60;51.10;;;;;;220917;1269;22553;-50
2022/04/07 19:54:16;;;;;;;11.60;2.50;;;22.60;52.30;;;;;;220290;1267;24054;-52
2022/04/07 19:59:22;;;;;;;10.80;2.90;;;22.60;52.70;;;;;;220427;1269;22853;-50
2022/04/07 20:04:26;;;;;;;11.80;2.80;;;22.60;52.50;;;;;;220756;1266;25330;-53
2022/04/07 20:09:31;;;;;;;7.70;2.40;;;22.60;52.90;;;;;;220578;1267;24296;-52
2022/04/07 20:14:40;;;;;;;8.80;2.10;;;22.60;52.80;;;;;;220796;1265;23175;-49
2022/04/07 20:19:46;;;;;;;9.50;2.20;;;22.60;52.70;;;;;;220631;1267;25354;-50
2022/04/07 20:24:51;;;;;;;8.80;1.80;;;22.60;53.00;;;;;;220522;1267;22559;-52
2022/04/07 20:29:55;;;;;;;7.70;2.20;;;22.60;52.60;;;;;;220707;1267;23062;-50
2022/04/07 20:35:00;;;;;;;8.10;2.30;;;22.70;52.40;;;;;;220378;1269;22690;-56
2022/04/07 20:40:05;;;;;;;8.00;2.20;;;22.70;52.30;;;;;;220597;1267;22529;-53
2022/04/07 20:45:09;;;;;;;10.10;2.20;;;22.90;51.80;;;;;;220588;1267;24211;-53
2022/04/07 20:50:16;;;;;;;7.60;2.00;;;23.20;51.30;;;;;;220619;1265;24350;-55
2022/04/07 20:55:19;;;;;;;10.50;2.40;;;23.30;50.80;;;;;;220557;1267;22608;-55
2022/04/07 21:00:23;;;;;;;8.20;1.80;;;23.50;50.40;;;;;;220503;1268;22832;-52
2022/04/07 21:05:27;;;;;;;8.30;2.30;;;23.70;50.10;;;;;;220647;1268;22759;-51
2022/04/07 21:10:31;;;;;;;5.10;2.00;;;23.70;49.80;;;;;;220575;1268;25403;-50
2022/04/07 21:15:37;;;;;;;7.00;2.50;;;23.90;49.20;;;;;;220695;1268;22533;-50
2022/04/07 21:20:41;;;;;;;13.20;2.50;;;23.90;49.50;;;;;;220615;1268;23188;-52
2022/04/07 21:25:48;;;;;;;5.80;1.80;;;24.00;49.30;;;;;;220720;1269;22540;-56
2022/04/07 21:30:55;;;;;;;9.00;2.40;;;24.00;49.20;;;;;;220410;1267;24331;-55
2022/04/07 21:36:00;;;;;;;8.20;2.20;;;24.00;50.90;;;;;;220069;1271;22552;-55
2022/04/07 21:41:10;;;;;;;6.70;2.30;;;23.90;53.40;;;;;;220567;1268;25310;-53
2022/04/07 21:46:19;;;;;;;9.20;2.50;;;23.90;54.00;;;;;;220228;1269;24049;-52
2022/04/07 21:51:23;;;;;;;7.60;2.70;;;23.80;53.90;;;;;;220744;1269;22753;-57
2022/04/07 21:56:28;;;;;;;6.00;1.70;;;23.70;53.90;;;;;;220487;1268;22699;-53
2022/04/07 22:01:32;;;;;;;6.00;1.60;;;23.60;54.00;;;;;;220537;1268;22601;-50
2022/04/07 22:06:42;;;;;;;5.10;2.00;;;23.50;54.10;;;;;;220260;1268;25554;-52
2022/04/07 22:12:00;;;;;;;3.70;1.70;;;23.50;54.50;;;;;;220391;1265;22647;-53
2022/04/07 22:17:08;;;;;;;4.60;1.60;;;23.40;54.20;;;;;;220363;1268;22564;-50
2022/04/07 22:22:12;;;;;;;5.60;1.60;;;23.40;54.20;;;;;;220236;1268;22549;-53
2022/04/07 22:27:18;;;;;;;6.50;2.00;;;23.40;54.20;;;;;;220213;1268;25310;-50
2022/04/07 22:32:22;;;;;;;5.60;1.70;;;23.30;53.80;;;;;;220194;1268;23163;-53
2022/04/07 22:37:26;;;;;;;5.90;1.60;;;23.30;54.00;;;;;;220460;1268;22564;-54
2022/04/07 22:42:31;;;;;;;9.60;2.20;;;23.20;54.20;;;;;;220389;1268;22835;-50
2022/04/07 22:47:41;;;;;;;8.40;2.20;;;23.20;54.20;;;;;;220397;1268;24297;-54
2022/04/07 22:52:47;;;;;;;6.00;1.70;;;23.20;54.80;;;;;;220542;1268;26472;-54
2022/04/07 22:57:52;;;;;;;8.50;1.70;;;23.10;55.00;;;;;;220645;1266;22553;-53
2022/04/07 23:02:56;;;;;;;6.80;1.50;;;23.10;55.10;;;;;;220573;1268;24309;-51
2022/04/07 23:08:00;;;;;;;5.50;1.90;;;23.00;55.00;;;;;;220554;1268;22683;-51
2022/04/07 23:13:04;;;;;;;5.90;1.70;;;23.00;55.10;;;;;;220396;1265;23930;-53
2022/04/07 23:18:11;;;;;;;5.10;1.70;;;23.00;55.20;;;;;;220606;1267;22750;-57
2022/04/07 23:23:16;;;;;;;5.60;1.90;;;22.90;54.70;;;;;;220682;1267;24422;-52
2022/04/07 23:28:19;;;;;;;5.90;1.90;;;22.90;54.60;;;;;;220790;1265;24311;-53
2022/04/07 23:33:23;;;;;;;3.40;1.50;;;22.90;54.60;;;;;;220724;1268;22790;-54
2022/04/07 23:38:30;;;;;;;8.10;2.20;;;22.80;54.60;;;;;;220692;1265;24523;-50
2022/04/07 23:43:34;;;;;;;7.30;1.60;;;22.80;54.70;;;;;;220359;1267;22686;-50
2022/04/07 23:48:38;;;;;;;3.10;1.30;;;22.70;54.50;;;;;;221083;1265;22540;-55
2022/04/07 23:53:44;;;;;;;6.20;1.90;;;22.70;54.10;;;;;;220739;1265;24373;-51
2022/04/07 23:59:01;;;;;;;2.30;1.10;;;22.70;54.00;;;;;;220506;1265;22561;-51
